Time;durP1;ratioP1;P1;durP2;ratioP2;P2;SDS_P1;SDS_P2;PMS_P1;PMS_P2;Temp;Humidity;BMP_temperature;BMP_pressure;BME280_temperature;BME280_humidity;BME280_pressure;Samples;Min_cycle;Max_cycle;Signal;HPM_P1;HPM_P2
2022/11/16 00:01:03;;;;;;;11.57;7.57;;;10.50;99.90;;;;;;5017159;28;20360;-82
2022/11/16 00:03:30;;;;;;;9.83;6.77;;;10.50;99.90;;;;;;5017004;28;20410;-74
2022/11/16 00:05:57;;;;;;;10.90;7.93;;;10.50;99.90;;;;;;5016731;28;20316;-74
2022/11/16 00:08:24;;;;;;;11.80;7.93;;;10.50;99.90;;;;;;5016799;28;20296;-75
2022/11/16 00:10:50;;;;;;;10.13;7.43;;;10.60;99.90;;;;;;5016143;28;20304;-74
2022/11/16 00:13:16;;;;;;;11.40;8.47;;;10.60;99.90;;;;;;5015261;28;20814;-75
2022/11/16 00:15:42;;;;;;;13.10;8.50;;;10.60;99.90;;;;;;5016701;28;20281;-75
2022/11/16 00:18:07;;;;;;;10.67;8.13;;;10.60;99.90;;;;;;5017447;28;20053;-75
2022/11/16 00:20:33;;;;;;;11.53;8.37;;;10.60;99.90;;;;;;5016355;28;20443;-75
2022/11/16 00:22:58;;;;;;;13.73;8.80;;;10.60;99.90;;;;;;5016528;28;20050;-74
2022/11/16 00:25:24;;;;;;;10.33;8.37;;;10.60;99.90;;;;;;5015370;28;20046;-75
2022/11/16 00:27:50;;;;;;;11.47;8.80;;;10.60;99.90;;;;;;5016542;28;20137;-74
2022/11/16 00:30:15;;;;;;;11.93;9.00;;;10.60;99.90;;;;;;5015501;28;20050;-75
2022/11/16 00:32:41;;;;;;;10.93;9.43;;;10.60;99.90;;;;;;5014718;28;20077;-75
2022/11/16 00:35:07;;;;;;;12.73;9.67;;;10.60;99.90;;;;;;5015121;28;20050;-74
2022/11/16 00:37:33;;;;;;;13.97;10.50;;;10.60;99.90;;;;;;5015100;28;20053;-74
2022/11/16 00:39:58;;;;;;;12.13;10.47;;;10.60;99.90;;;;;;5016301;28;20292;-74
2022/11/16 00:42:24;;;;;;;14.20;10.73;;;10.70;99.90;;;;;;5014979;28;20045;-74
2022/11/16 00:44:50;;;;;;;12.93;10.27;;;10.60;99.90;;;;;;5015261;28;20133;-74
2022/11/16 00:47:15;;;;;;;13.87;10.90;;;10.70;99.90;;;;;;5015234;28;20492;-74
2022/11/16 00:49:41;;;;;;;13.43;11.03;;;10.70;99.90;;;;;;5016404;28;20108;-74
2022/11/16 00:52:07;;;;;;;14.33;10.80;;;10.70;99.90;;;;;;5015069;28;20064;-82
2022/11/16 00:54:32;;;;;;;14.87;12.30;;;10.70;99.90;;;;;;5015945;28;20056;-74
2022/11/16 00:56:58;;;;;;;18.20;11.63;;;10.70;99.90;;;;;;5014730;28;20049;-75
2022/11/16 00:59:24;;;;;;;13.93;12.23;;;10.70;99.90;;;;;;5014632;28;20049;-75
2022/11/16 01:01:49;;;;;;;15.10;12.07;;;10.70;99.90;;;;;;5014921;28;20048;-75
2022/11/16 01:04:15;;;;;;;18.20;14.33;;;10.70;99.90;;;;;;5015521;28;20151;-75
2022/11/16 01:06:41;;;;;;;16.70;13.40;;;10.70;99.90;;;;;;5015382;28;20058;-75
2022/11/16 01:09:06;;;;;;;16.43;13.20;;;10.70;99.90;;;;;;5015716;28;20050;-75
2022/11/16 01:14:16;;;;;;;19.50;14.57;;;10.70;99.90;;;;;;5014924;28;20096;-76
2022/11/16 01:16:42;;;;;;;21.83;14.87;;;10.70;99.90;;;;;;5015602;28;20293;-75
2022/11/16 01:19:09;;;;;;;20.60;14.93;;;10.70;99.90;;;;;;5015579;28;20041;-76
2022/11/16 01:21:34;;;;;;;19.53;15.67;;;10.70;99.90;;;;;;5015420;28;20147;-76
2022/11/16 01:24:00;;;;;;;19.53;14.73;;;10.70;99.90;;;;;;5031260;28;20686;-76
2022/11/16 01:26:26;;;;;;;20.33;16.10;;;10.70;99.90;;;;;;5014201;28;20049;-76
2022/11/16 01:28:52;;;;;;;20.23;16.10;;;10.70;99.90;;;;;;5014404;28;20293;-76
2022/11/16 01:31:18;;;;;;;20.27;16.63;;;10.70;99.90;;;;;;5015291;28;20069;-77
2022/11/16 01:33:43;;;;;;;25.10;18.33;;;10.70;99.90;;;;;;5014305;28;20045;-76
2022/11/16 01:36:13;;;;;;;21.73;16.53;;;10.70;99.90;;;;;;5014058;28;20281;-76
2022/11/16 01:38:40;;;;;;;24.27;18.10;;;10.70;99.90;;;;;;5015736;28;20052;-76
2022/11/16 01:41:05;;;;;;;22.63;17.00;;;10.70;99.90;;;;;;5013989;28;20304;-76
2022/11/16 01:43:48;;;;;;;25.73;19.03;;;10.70;99.90;;;;;;5015241;28;20350;-77
2022/11/16 01:46:13;;;;;;;24.73;18.43;;;10.70;99.90;;;;;;5014524;28;20050;-81
2022/11/16 01:48:39;;;;;;;24.60;19.67;;;10.70;99.90;;;;;;4998260;28;20320;-77
2022/11/16 01:51:05;;;;;;;28.87;19.73;;;10.70;99.90;;;;;;5014873;28;20046;-77
2022/11/16 01:53:31;;;;;;;24.90;19.30;;;10.70;99.90;;;;;;5014128;28;20300;-77
2022/11/16 01:55:57;;;;;;;28.00;19.87;;;10.70;99.90;;;;;;5014166;28;20050;-77
2022/11/16 01:58:24;;;;;;;27.23;20.57;;;10.70;99.90;;;;;;5014792;28;20046;-77
2022/11/16 02:00:50;;;;;;;25.50;19.67;;;10.70;99.90;;;;;;5013462;28;20053;-77
2022/11/16 02:03:19;;;;;;;28.57;20.47;;;10.70;99.90;;;;;;5015196;28;20319;-80
2022/11/16 02:05:45;;;;;;;31.73;21.27;;;10.70;99.90;;;;;;5013431;28;20422;-76
2022/11/16 02:11:33;;;;;;;30.17;22.30;;;10.70;99.90;;;;;;5014473;28;20065;-76
2022/11/16 02:14:20;;;;;;;33.37;22.67;;;10.70;99.90;;;;;;5014811;28;20383;-76
2022/11/16 02:17:18;;;;;;;30.37;22.17;;;10.70;99.90;;;;;;5014558;28;20281;-76
2022/11/16 02:19:46;;;;;;;30.17;21.97;;;10.70;99.90;;;;;;5015070;28;20277;-76
2022/11/16 02:22:36;;;;;;;30.33;22.07;;;10.80;99.90;;;;;;4997603;28;20765;-75
2022/11/16 02:25:23;;;;;;;31.50;22.43;;;10.70;99.90;;;;;;5014399;28;20284;-75
2022/11/16 02:28:13;;;;;;;30.97;22.57;;;10.80;99.90;;;;;;5015167;28;20679;-75
2022/11/16 02:30:43;;;;;;;36.43;23.63;;;10.80;99.90;;;;;;5013359;28;20315;-76
2022/11/16 02:33:12;;;;;;;32.73;22.97;;;10.80;99.90;;;;;;5014183;28;20272;-75
2022/11/16 02:35:45;;;;;;;31.73;22.93;;;10.80;99.90;;;;;;5014177;28;20292;-76
2022/11/16 02:38:17;;;;;;;31.97;22.97;;;10.80;99.90;;;;;;5014147;28;20277;-76
2022/11/16 02:40:47;;;;;;;31.47;23.47;;;10.80;99.90;;;;;;5012811;28;20293;-76
2022/11/16 02:43:22;;;;;;;30.80;22.67;;;10.80;99.90;;;;;;5014007;28;20288;-76
2022/11/16 02:45:52;;;;;;;30.98;23.02;;;10.80;99.90;;;;;;5013502;28;20307;-76
2022/11/16 02:48:22;;;;;;;28.63;21.53;;;10.80;99.90;;;;;;5013111;28;20116;-76
2022/11/16 02:50:51;;;;;;;32.83;23.80;;;10.80;99.90;;;;;;5014603;28;20308;-76
2022/11/16 02:53:20;;;;;;;31.57;22.80;;;10.90;99.90;;;;;;5012936;28;20319;-76
2022/11/16 02:55:45;;;;;;;33.20;21.77;;;10.80;99.90;;;;;;5013556;28;20773;-76
2022/11/16 02:58:14;;;;;;;29.07;21.30;;;10.80;99.90;;;;;;5012888;28;20323;-76
2022/11/16 03:00:56;;;;;;;36.60;22.43;;;10.80;99.90;;;;;;5013599;28;20132;-76
2022/11/16 03:03:53;;;;;;;33.03;21.83;;;10.80;99.90;;;;;;5014711;28;20284;-76
2022/11/16 03:06:29;;;;;;;35.27;22.50;;;10.80;99.90;;;;;;5010793;28;20360;-76
2022/11/16 03:09:07;;;;;;;31.50;22.00;;;10.90;99.90;;;;;;5013839;28;20756;-77
2022/11/16 03:14:25;;;;;;;30.30;21.50;;;10.90;99.90;;;;;;5014584;28;20277;-77
2022/11/16 03:16:59;;;;;;;31.20;21.97;;;10.90;99.90;;;;;;5014347;28;20280;-77
2022/11/16 03:19:44;;;;;;;32.37;21.03;;;10.90;99.90;;;;;;5014538;28;20649;-79
2022/11/16 03:22:22;;;;;;;30.67;21.60;;;10.90;99.90;;;;;;5013285;28;20328;-78
2022/11/16 03:24:49;;;;;;;35.37;22.40;;;10.90;99.90;;;;;;5013695;28;20143;-78
2022/11/16 03:27:38;;;;;;;34.87;22.43;;;10.90;99.90;;;;;;5013702;28;20284;-78
2022/11/16 03:30:11;;;;;;;33.00;21.73;;;10.90;99.90;;;;;;5014219;28;20313;-78
2022/11/16 03:33:04;;;;;;;29.10;21.47;;;10.90;99.90;;;;;;5013650;28;20277;-79
2022/11/16 03:35:37;;;;;;;28.77;20.47;;;10.90;99.90;;;;;;5012609;28;20289;-79
2022/11/16 03:38:05;;;;;;;32.47;20.30;;;10.90;99.90;;;;;;5014439;28;20277;-79
2022/11/16 03:40:33;;;;;;;32.10;20.00;;;10.90;99.90;;;;;;5014010;28;20281;-78
2022/11/16 03:43:01;;;;;;;34.10;22.67;;;10.90;99.90;;;;;;5013174;28;20784;-78
2022/11/16 03:45:29;;;;;;;32.63;21.20;;;10.90;99.90;;;;;;5013508;28;20815;-81
2022/11/16 03:47:54;;;;;;;32.93;22.17;;;10.90;99.90;;;;;;5013454;28;20287;-79
2022/11/16 03:50:20;;;;;;;27.20;20.07;;;10.90;99.90;;;;;;5012291;28;20284;-78
2022/11/16 03:52:46;;;;;;;29.73;20.70;;;10.90;99.90;;;;;;5012254;28;20037;-78
2022/11/16 03:55:12;;;;;;;29.23;20.40;;;10.90;99.90;;;;;;5012445;28;20096;-79
2022/11/16 03:57:37;;;;;;;30.20;20.87;;;10.90;99.90;;;;;;5013267;28;20104;-78
2022/11/16 04:00:05;;;;;;;26.20;19.90;;;10.90;99.90;;;;;;5012195;28;20056;-79
2022/11/16 04:02:31;;;;;;;32.13;21.20;;;11.00;99.90;;;;;;5011901;28;20410;-79
2022/11/16 04:24:19;;;;;;;27.70;20.27;;;10.90;99.90;;;;;;5016080;28;20776;-80
2022/11/16 04:29:34;;;;;;;28.23;18.93;;;10.90;99.90;;;;;;5015562;28;20324;-82
2022/11/16 04:40:16;;;;;;;31.80;20.63;;;10.90;99.90;;;;;;5001490;28;20296;-81
2022/11/16 04:42:42;;;;;;;22.23;18.13;;;11.00;99.90;;;;;;5016155;28;20705;-81
2022/11/16 04:47:53;;;;;;;24.13;18.08;;;11.00;99.90;;;;;;5001694;28;20053;-81
2022/11/16 04:50:19;;;;;;;29.17;20.03;;;11.00;99.90;;;;;;5015957;28;20451;-81
2022/11/16 04:52:45;;;;;;;22.00;16.87;;;11.00;99.90;;;;;;5016294;28;20157;-81
2022/11/16 04:55:11;;;;;;;24.63;18.23;;;11.00;99.90;;;;;;5016070;28;20285;-82
2022/11/16 04:57:37;;;;;;;27.23;19.20;;;11.00;99.90;;;;;;5016601;28;20046;-83
2022/11/16 05:00:05;;;;;;;30.63;20.20;;;11.00;99.90;;;;;;5016195;28;20272;-82
2022/11/16 05:02:30;;;;;;;26.03;19.20;;;11.00;99.90;;;;;;4998294;28;20663;-82
2022/11/16 05:04:56;;;;;;;26.87;19.03;;;11.00;99.90;;;;;;5014906;28;20372;-82
2022/11/16 05:07:22;;;;;;;28.43;19.67;;;11.00;99.90;;;;;;5015076;28;20382;-82
2022/11/16 05:09:48;;;;;;;30.17;20.60;;;11.00;99.90;;;;;;5015809;28;20085;-82
2022/11/16 05:12:15;;;;;;;32.13;20.97;;;11.00;99.90;;;;;;5014792;28;20045;-82
2022/11/16 05:14:41;;;;;;;32.80;19.90;;;11.00;99.90;;;;;;5015252;28;20284;-83
2022/11/16 05:17:07;;;;;;;30.10;20.27;;;11.00;99.90;;;;;;5014670;28;20288;-82
2022/11/16 05:22:17;;;;;;;44.37;22.20;;;11.00;99.90;;;;;;5015217;28;20049;-80
2022/11/16 05:24:43;;;;;;;43.40;23.77;;;11.00;99.90;;;;;;5014304;28;20748;-81
2022/11/16 05:27:13;;;;;;;33.57;20.10;;;11.00;99.90;;;;;;5014294;28;20091;-81
2022/11/16 05:29:40;;;;;;;34.23;20.63;;;11.00;99.90;;;;;;5014104;28;20081;-86
2022/11/16 05:32:06;;;;;;;34.47;21.00;;;11.00;99.90;;;;;;5015327;28;20316;-82
2022/11/16 05:34:32;;;;;;;38.67;21.87;;;11.00;99.90;;;;;;5014884;28;20741;-83
2022/11/16 05:36:58;;;;;;;29.63;19.87;;;11.00;99.90;;;;;;5014132;28;20299;-83
2022/11/16 05:39:24;;;;;;;31.67;19.43;;;11.00;99.90;;;;;;5014471;28;20760;-83
2022/11/16 05:41:51;;;;;;;30.07;19.67;;;11.00;99.90;;;;;;5013938;28;20464;-83
2022/11/16 05:44:17;;;;;;;31.73;19.07;;;11.00;99.90;;;;;;5014138;28;20289;-83
2022/11/16 05:46:43;;;;;;;20.83;16.10;;;11.00;99.90;;;;;;5014032;28;20284;-84
2022/11/16 05:49:10;;;;;;;25.63;18.47;;;11.00;99.90;;;;;;4998487;28;20285;-83
2022/11/16 05:51:37;;;;;;;24.87;18.13;;;11.00;99.90;;;;;;4965649;28;20308;-83
2022/11/16 05:54:04;;;;;;;27.17;20.30;;;11.00;99.90;;;;;;5013677;28;20343;-84
2022/11/16 05:56:30;;;;;;;38.00;22.80;;;11.00;99.90;;;;;;5014170;28;20316;-83
2022/11/16 05:58:56;;;;;;;35.03;22.23;;;11.00;99.90;;;;;;5015102;28;20312;-84
2022/11/16 06:01:22;;;;;;;31.97;21.77;;;11.00;99.90;;;;;;5014715;28;20085;-83
2022/11/16 06:03:47;;;;;;;42.77;22.00;;;11.00;99.90;;;;;;5013496;28;20709;-84
2022/11/16 06:06:13;;;;;;;35.97;21.37;;;11.00;99.90;;;;;;5013597;28;20045;-84
2022/11/16 06:08:39;;;;;;;35.77;21.10;;;11.00;99.90;;;;;;4980766;28;20479;-85
2022/11/16 06:11:07;;;;;;;39.93;18.70;;;11.00;99.90;;;;;;5013310;28;20085;-85
2022/11/16 06:13:33;;;;;;;27.07;15.93;;;11.00;99.90;;;;;;5014320;28;20427;-85
2022/11/16 06:16:00;;;;;;;21.50;14.33;;;11.00;99.90;;;;;;5013591;28;20277;-85
2022/11/16 06:18:26;;;;;;;18.83;12.30;;;11.00;99.90;;;;;;4997381;28;20050;-85
2022/11/16 06:20:52;;;;;;;33.37;15.60;;;10.90;99.90;;;;;;5014372;28;20834;-85
2022/11/16 06:23:18;;;;;;;24.00;13.57;;;10.90;99.90;;;;;;4997088;28;20293;-85
2022/11/16 06:25:44;;;;;;;32.07;14.33;;;10.90;99.90;;;;;;5013406;28;20346;-85
2022/11/16 06:28:10;;;;;;;18.90;11.50;;;10.90;99.90;;;;;;5013011;28;20046;-85
2022/11/16 06:30:38;;;;;;;24.47;12.60;;;10.90;99.90;;;;;;4997222;28;20136;-85
2022/11/16 06:33:04;;;;;;;36.87;15.30;;;10.90;99.90;;;;;;5013254;28;20045;-86
2022/11/16 06:35:30;;;;;;;18.17;10.57;;;10.90;99.90;;;;;;4997104;28;20297;-85
2022/11/16 06:37:56;;;;;;;16.23;10.87;;;10.90;99.90;;;;;;4997147;28;20297;-85
2022/11/16 06:40:22;;;;;;;19.97;10.90;;;10.80;99.90;;;;;;5029963;28;20077;-85
2022/11/16 06:42:48;;;;;;;25.83;11.93;;;10.80;99.90;;;;;;5012544;28;20312;-87
2022/11/16 06:45:14;;;;;;;43.57;15.80;;;10.80;99.90;;;;;;5013063;28;20301;-85
2022/11/16 06:47:40;;;;;;;28.63;13.07;;;10.80;99.90;;;;;;5013176;28;20050;-85
2022/11/16 06:50:06;;;;;;;27.03;14.50;;;10.80;99.90;;;;;;5013097;28;20493;-86
2022/11/16 06:52:31;;;;;;;36.43;15.37;;;10.80;99.90;;;;;;4980574;28;20042;-86
2022/11/16 06:54:57;;;;;;;49.30;16.40;;;10.80;99.90;;;;;;5012867;28;20289;-86
2022/11/16 06:57:23;;;;;;;36.73;16.07;;;10.80;99.90;;;;;;5012799;28;20567;-85
2022/11/16 06:59:48;;;;;;;31.97;16.23;;;10.80;99.90;;;;;;4996612;28;20065;-85
2022/11/16 07:02:15;;;;;;;46.17;18.67;;;10.80;99.90;;;;;;5013512;28;20129;-85
2022/11/16 07:04:40;;;;;;;71.33;21.77;;;10.80;99.90;;;;;;4980436;28;20143;-85
2022/11/16 07:07:06;;;;;;;83.77;22.93;;;10.80;99.90;;;;;;4996255;28;20712;-85
2022/11/16 07:09:32;;;;;;;52.90;20.97;;;10.80;99.90;;;;;;5012856;28;20061;-85
2022/11/16 07:11:58;;;;;;;59.03;21.20;;;10.80;99.90;;;;;;5012865;28;20046;-85
2022/11/16 07:14:23;;;;;;;53.20;21.57;;;10.80;99.90;;;;;;4980315;28;20042;-85
2022/11/16 07:16:49;;;;;;;39.23;18.60;;;10.80;99.90;;;;;;4997351;28;20046;-85
2022/11/16 07:19:15;;;;;;;116.03;28.60;;;10.80;99.90;;;;;;4996419;28;20104;-86
2022/11/16 07:21:41;;;;;;;50.87;21.67;;;10.80;99.90;;;;;;5013072;28;20046;-87
2022/11/16 07:24:06;;;;;;;39.03;19.00;;;10.80;99.90;;;;;;4996185;28;20065;-87
2022/11/16 07:26:33;;;;;;;41.27;20.20;;;10.80;99.90;;;;;;5012974;28;20049;-87
2022/11/16 07:28:59;;;;;;;90.47;23.67;;;10.70;99.90;;;;;;4997168;28;20050;-87
2022/11/16 07:31:25;;;;;;;49.53;21.40;;;10.80;99.90;;;;;;5013658;28;20283;-87
2022/11/16 07:33:51;;;;;;;63.43;23.37;;;10.70;99.90;;;;;;5012654;28;20284;-88
2022/11/16 07:36:17;;;;;;;39.27;20.70;;;10.70;99.90;;;;;;4980233;28;20099;-88
2022/11/16 07:38:43;;;;;;;83.17;25.77;;;10.70;99.90;;;;;;5012363;28;20053;-88
2022/11/16 07:41:14;;;;;;;46.00;20.77;;;10.70;99.90;;;;;;4996928;28;20301;-88
2022/11/16 07:43:40;;;;;;;110.70;27.80;;;10.70;99.90;;;;;;5015227;28;20065;-89
2022/11/16 07:46:09;;;;;;;57.97;23.90;;;10.70;99.90;;;;;;5000797;28;20292;-88
2022/11/16 07:48:35;;;;;;;43.63;22.00;;;10.70;99.90;;;;;;5000246;28;20046;-89
2022/11/16 07:51:06;;;;;;;50.63;23.27;;;10.70;99.90;;;;;;5016541;28;20376;-89
2022/11/16 07:53:33;;;;;;;49.97;23.37;;;10.70;99.90;;;;;;5016028;28;20045;-89
2022/11/16 07:55:59;;;;;;;42.67;20.73;;;10.70;99.90;;;;;;5016430;28;20372;-88
2022/11/16 07:58:26;;;;;;;53.60;23.13;;;10.70;99.90;;;;;;5016172;28;20291;-88
2022/11/16 08:00:52;;;;;;;45.30;22.17;;;10.70;99.90;;;;;;5015755;28;20388;-88
2022/11/16 08:03:18;;;;;;;74.37;25.37;;;10.70;99.90;;;;;;5000306;28;20685;-88
2022/11/16 08:05:45;;;;;;;64.63;25.73;;;10.70;99.90;;;;;;5016043;28;20046;-89
2022/11/16 08:08:11;;;;;;;63.63;24.70;;;10.80;99.90;;;;;;5015844;28;20062;-88
2022/11/16 08:10:36;;;;;;;53.43;22.33;;;10.70;99.90;;;;;;5016539;28;20359;-88
2022/11/16 08:13:03;;;;;;;68.50;24.50;;;10.70;99.90;;;;;;5000312;28;20289;-88
2022/11/16 08:15:28;;;;;;;117.70;31.30;;;10.70;99.90;;;;;;5016191;28;20430;-88
2022/11/16 08:17:57;;;;;;;179.30;35.77;;;10.70;99.90;;;;;;4999445;28;20284;-88
2022/11/16 08:20:23;;;;;;;71.53;26.37;;;10.70;99.90;;;;;;5016824;28;20049;-88
2022/11/16 08:22:48;;;;;;;61.27;25.03;;;10.70;99.90;;;;;;5016207;28;20316;-88
2022/11/16 08:25:14;;;;;;;66.87;23.93;;;10.70;99.90;;;;;;4999350;28;20509;-88
2022/11/16 08:27:40;;;;;;;37.10;20.43;;;10.70;99.90;;;;;;5015651;28;20099;-89
2022/11/16 08:30:08;;;;;;;50.57;22.33;;;10.70;99.90;;;;;;4999191;28;20050;-88
2022/11/16 08:32:37;;;;;;;46.07;20.67;;;10.70;99.90;;;;;;4999800;28;20084;-88
2022/11/16 08:35:03;;;;;;;48.67;22.57;;;10.70;99.90;;;;;;5015583;28;20281;-87
2022/11/16 08:37:30;;;;;;;31.80;19.23;;;10.70;99.90;;;;;;5015443;28;20722;-87
2022/11/16 08:39:56;;;;;;;48.93;21.30;;;10.70;99.90;;;;;;5016270;28;20294;-87
2022/11/16 08:42:22;;;;;;;33.30;18.20;;;10.70;99.90;;;;;;4999061;28;20308;-87
2022/11/16 08:44:48;;;;;;;40.13;19.33;;;10.70;99.90;;;;;;4998925;28;20300;-87
2022/11/16 08:47:14;;;;;;;29.43;18.17;;;10.80;99.90;;;;;;4998969;28;20078;-86
2022/11/16 08:49:39;;;;;;;40.77;19.57;;;10.70;99.90;;;;;;5015511;28;20559;-87
2022/11/16 08:52:05;;;;;;;32.23;18.73;;;10.80;99.90;;;;;;5015180;28;20551;-86
2022/11/16 08:54:31;;;;;;;29.57;17.27;;;10.70;99.90;;;;;;4983175;28;20050;-83
2022/11/16 08:56:56;;;;;;;28.53;18.37;;;10.80;99.90;;;;;;5014999;28;20052;-90
2022/11/16 08:59:22;;;;;;;31.37;18.90;;;10.80;99.90;;;;;;5015080;28;20045;-90
2022/11/16 09:01:50;;;;;;;36.03;18.80;;;10.80;99.90;;;;;;4998679;28;20119;-90
2022/11/16 09:04:17;;;;;;;32.07;18.53;;;10.80;99.90;;;;;;4999336;28;20049;-86
2022/11/16 09:06:43;;;;;;;39.23;19.13;;;10.90;99.90;;;;;;5014690;28;20304;-89
2022/11/16 09:09:09;;;;;;;31.53;18.53;;;10.90;99.90;;;;;;4999426;28;20289;-84
2022/11/16 09:11:35;;;;;;;34.93;18.67;;;10.90;99.90;;;;;;4982365;28;20291;-85
2022/11/16 09:14:01;;;;;;;39.37;19.83;;;10.90;99.90;;;;;;5015575;28;20052;-84
2022/11/16 09:16:27;;;;;;;31.30;18.87;;;11.00;99.90;;;;;;4999268;28;20289;-84
2022/11/16 09:18:53;;;;;;;34.00;18.43;;;11.00;99.90;;;;;;4999183;28;20132;-85
2022/11/16 09:21:21;;;;;;;36.67;19.63;;;11.00;99.90;;;;;;5015813;28;20052;-83
2022/11/16 09:23:48;;;;;;;31.57;19.43;;;11.10;99.90;;;;;;5014594;28;20835;-82
2022/11/16 09:26:15;;;;;;;35.97;18.60;;;11.10;99.90;;;;;;5014514;28;20293;-85
2022/11/16 09:28:41;;;;;;;40.90;21.90;;;11.10;99.90;;;;;;4998208;28;20296;-83
2022/11/16 09:31:08;;;;;;;35.70;22.27;;;11.20;99.90;;;;;;5014237;28;20387;-86
2022/11/16 09:33:35;;;;;;;31.90;20.17;;;11.10;99.90;;;;;;5015206;28;20292;-87
2022/11/16 09:36:06;;;;;;;47.03;23.40;;;11.30;99.90;;;;;;4997751;28;20379;-83
2022/11/16 09:38:39;;;;;;;41.27;23.20;;;11.40;99.90;;;;;;4998278;28;20293;-84
2022/11/16 09:41:14;;;;;;;40.87;22.83;;;11.50;99.90;;;;;;4997876;28;20305;-84
2022/11/16 09:43:52;;;;;;;36.70;20.77;;;11.50;99.90;;;;;;5014526;28;20304;-84
2022/11/16 09:46:24;;;;;;;40.97;22.70;;;11.50;99.90;;;;;;5014069;28;20064;-82
2022/11/16 09:48:50;;;;;;;42.53;22.77;;;11.50;99.90;;;;;;5014103;28;20350;-85
2022/11/16 09:51:20;;;;;;;36.73;21.87;;;11.50;99.90;;;;;;4997581;28;20614;-84
2022/11/16 09:54:01;;;;;;;40.00;21.47;;;11.50;99.90;;;;;;4997685;28;20296;-84
2022/11/16 09:56:34;;;;;;;31.57;19.67;;;11.50;99.90;;;;;;4997949;28;20629;-86
2022/11/16 09:59:08;;;;;;;36.87;20.50;;;11.50;99.90;;;;;;5013953;28;20289;-84
2022/11/16 10:01:45;;;;;;;35.80;21.13;;;11.50;99.90;;;;;;4997744;28;20301;-83
2022/11/16 10:04:39;;;;;;;31.00;18.90;;;11.50;99.90;;;;;;5013921;28;20501;-86
2022/11/16 10:07:15;;;;;;;21.73;15.80;;;11.50;99.90;;;;;;4992157;28;20300;-80
2022/11/16 10:09:42;;;;;;;22.80;15.77;;;11.50;99.90;;;;;;5013574;28;20285;-76
2022/11/16 10:12:29;;;;;;;22.40;15.53;;;11.40;99.90;;;;;;5013615;28;20653;-76
2022/11/16 10:15:18;;;;;;;21.60;15.93;;;11.40;99.90;;;;;;5013637;28;20293;-75
2022/11/16 10:18:26;;;;;;;21.97;16.07;;;11.40;99.90;;;;;;4991448;28;20800;-76
2022/11/16 10:21:37;;;;;;;27.10;16.10;;;11.40;99.90;;;;;;5014289;28;20343;-75
2022/11/16 10:24:19;;;;;;;21.20;13.17;;;11.30;99.90;;;;;;5003577;28;20332;-76
2022/11/16 10:27:07;;;;;;;22.03;14.43;;;11.30;99.90;;;;;;4997157;28;20293;-76
2022/11/16 10:29:54;;;;;;;22.17;14.20;;;11.40;99.90;;;;;;4997308;28;20296;-76
2022/11/16 10:32:32;;;;;;;18.47;12.30;;;11.40;99.90;;;;;;5013187;28;20285;-74
2022/11/16 10:35:11;;;;;;;19.03;12.20;;;11.30;99.90;;;;;;5013649;28;20603;-79
2022/11/16 10:37:42;;;;;;;21.60;12.50;;;11.30;99.90;;;;;;5014340;28;20281;-79
2022/11/16 10:40:19;;;;;;;18.17;11.87;;;11.30;99.90;;;;;;4996992;28;20316;-78
2022/11/16 10:43:11;;;;;;;23.07;12.27;;;11.30;99.90;;;;;;5014285;28;20292;-77
2022/11/16 10:45:59;;;;;;;22.47;13.10;;;11.30;99.90;;;;;;5013511;28;20375;-79
2022/11/16 10:48:31;;;;;;;22.70;14.10;;;11.30;99.90;;;;;;5013136;28;20388;-78
2022/11/16 10:50:56;;;;;;;20.33;13.10;;;11.20;99.90;;;;;;5013665;28;20292;-79
2022/11/16 10:53:33;;;;;;;22.13;13.97;;;11.20;99.90;;;;;;5013417;28;20355;-81
2022/11/16 10:56:19;;;;;;;19.83;12.23;;;11.20;99.90;;;;;;5014904;28;20046;-82
2022/11/16 10:58:53;;;;;;;21.55;13.40;;;11.20;99.90;;;;;;4997018;28;20379;-83
2022/11/16 11:01:29;;;;;;;20.17;12.77;;;11.20;99.90;;;;;;5014000;28;20104;-75
2022/11/16 11:03:55;;;;;;;24.27;12.30;;;11.20;99.90;;;;;;5013023;28;20676;-77
2022/11/16 11:06:25;;;;;;;25.23;13.77;;;11.20;99.90;;;;;;5012344;28;20288;-79
2022/11/16 11:08:50;;;;;;;17.53;12.13;;;11.20;99.90;;;;;;5012812;28;20056;-76
2022/11/16 11:14:12;;;;;;;18.10;12.00;;;11.10;99.90;;;;;;5014665;28;20104;-77
2022/11/16 11:16:40;;;;;;;23.53;11.73;;;11.10;99.90;;;;;;5014352;28;20285;-79
2022/11/16 11:19:35;;;;;;;17.10;11.17;;;11.20;99.90;;;;;;5017009;28;20320;-85
2022/11/16 11:22:00;;;;;;;14.63;9.67;;;11.10;99.90;;;;;;5011983;28;20732;-82
2022/11/16 11:24:27;;;;;;;19.73;9.23;;;11.10;99.90;;;;;;5001168;28;20317;-83
2022/11/16 11:26:57;;;;;;;15.53;9.87;;;11.10;99.90;;;;;;5017063;28;20128;-81
2022/11/16 11:29:29;;;;;;;16.00;9.30;;;11.10;99.90;;;;;;5017694;28;20324;-87
2022/11/16 11:32:00;;;;;;;16.17;7.17;;;11.10;99.90;;;;;;5017541;28;20288;-86
2022/11/16 11:34:39;;;;;;;13.50;7.57;;;11.10;99.90;;;;;;5016680;28;20363;-87
2022/11/16 11:37:12;;;;;;;15.60;7.43;;;11.00;99.90;;;;;;5017443;28;20344;-88
2022/11/16 11:39:38;;;;;;;18.27;8.20;;;11.00;99.90;;;;;;5033840;28;20293;-82
2022/11/16 11:42:12;;;;;;;15.63;7.93;;;10.90;99.90;;;;;;5017403;28;20618;-87
2022/11/16 11:44:58;;;;;;;19.33;7.85;;;11.00;99.90;;;;;;5000125;28;20042;-82
2022/11/16 11:47:43;;;;;;;15.73;7.80;;;11.00;99.90;;;;;;5016299;28;20050;-88
2022/11/16 11:50:43;;;;;;;15.75;7.63;;;11.00;99.90;;;;;;5000868;28;20297;-87
2022/11/16 11:53:09;;;;;;;16.13;6.80;;;11.00;99.90;;;;;;5016380;28;20554;-84
2022/11/16 11:55:35;;;;;;;10.80;6.17;;;11.00;99.90;;;;;;4999936;28;20456;-84
2022/11/16 11:58:03;;;;;;;13.33;6.13;;;11.10;99.90;;;;;;5016457;28;20053;-84
2022/11/16 12:00:45;;;;;;;13.13;6.30;;;11.10;99.90;;;;;;5032597;28;20561;-83
2022/11/16 12:03:41;;;;;;;13.70;5.70;;;11.10;99.90;;;;;;5032572;28;20308;-85
2022/11/16 12:06:17;;;;;;;15.27;6.17;;;11.00;99.90;;;;;;5016523;28;20360;-84
2022/11/16 12:08:47;;;;;;;15.20;6.83;;;11.00;99.90;;;;;;5017490;28;20333;-83
2022/11/16 12:11:40;;;;;;;14.60;4.80;;;10.90;99.90;;;;;;5016216;28;20840;-88
2022/11/16 12:14:48;;;;;;;11.70;5.53;;;10.90;99.90;;;;;;5016181;28;20292;-88
2022/11/16 12:17:36;;;;;;;12.57;4.27;;;10.80;99.90;;;;;;5015896;28;20332;-83
2022/11/16 12:20:34;;;;;;;12.93;4.33;;;10.80;99.90;;;;;;5017369;28;20280;-81
2022/11/16 12:23:24;;;;;;;10.43;3.93;;;10.80;99.90;;;;;;5016029;28;20754;-82
2022/11/16 12:26:23;;;;;;;14.27;4.50;;;10.80;99.90;;;;;;5016425;28;20767;-82
2022/11/16 12:28:55;;;;;;;12.23;4.97;;;10.80;99.90;;;;;;5015467;28;20364;-87
2022/11/16 12:31:45;;;;;;;15.80;5.20;;;10.70;99.90;;;;;;5015932;28;20289;-88
2022/11/16 12:34:21;;;;;;;12.40;4.53;;;10.80;99.90;;;;;;4999512;28;20299;-88
2022/11/16 12:37:10;;;;;;;13.47;4.47;;;10.80;99.90;;;;;;5017057;28;20273;-88
2022/11/16 12:39:43;;;;;;;17.63;4.90;;;10.70;99.90;;;;;;5016048;28;20603;-88
2022/11/16 12:42:34;;;;;;;14.97;4.13;;;10.70;99.90;;;;;;4999744;28;20301;-88
2022/11/16 12:45:18;;;;;;;15.23;4.53;;;10.70;99.90;;;;;;5015666;28;20292;-88
2022/11/16 12:48:24;;;;;;;12.60;3.23;;;10.70;99.90;;;;;;5016138;28;20664;-88
2022/11/16 12:51:27;;;;;;;15.50;4.65;;;10.70;99.90;;;;;;4999791;28;20289;-88
2022/11/16 12:53:53;;;;;;;14.67;3.57;;;10.60;99.90;;;;;;5016146;28;20054;-88
2022/11/16 12:56:44;;;;;;;14.60;4.13;;;10.60;99.90;;;;;;5015898;28;20303;-88
2022/11/16 12:59:29;;;;;;;13.90;4.10;;;10.60;99.90;;;;;;5015686;28;20057;-88
2022/11/16 13:02:20;;;;;;;12.65;3.67;;;10.60;99.90;;;;;;5015216;28;20355;-88
2022/11/16 13:04:57;;;;;;;18.57;3.93;;;10.60;99.90;;;;;;5015826;28;20049;-88
2022/11/16 13:07:37;;;;;;;12.47;3.50;;;10.60;99.90;;;;;;5014507;28;20372;-87
2022/11/16 13:10:13;;;;;;;12.70;3.50;;;10.60;99.90;;;;;;5014914;28;20296;-88
2022/11/16 13:12:41;;;;;;;12.40;3.47;;;10.60;99.90;;;;;;5032174;28;20294;-87
2022/11/16 13:15:18;;;;;;;16.83;4.10;;;10.60;99.90;;;;;;4998481;28;20347;-88
2022/11/16 13:17:51;;;;;;;15.97;3.47;;;10.60;99.90;;;;;;5015071;28;20292;-88
2022/11/16 13:20:16;;;;;;;11.33;3.67;;;10.60;99.90;;;;;;5015526;28;20757;-88
2022/11/16 13:22:52;;;;;;;17.77;4.70;;;10.60;99.90;;;;;;4998097;28;20300;-87
2022/11/16 13:25:46;;;;;;;13.50;4.50;;;10.60;99.90;;;;;;5015500;28;20049;-88
2022/11/16 13:28:30;;;;;;;14.63;4.07;;;10.50;99.90;;;;;;5014320;28;20281;-88
2022/11/16 13:31:10;;;;;;;13.27;3.93;;;10.50;99.90;;;;;;5014746;28;20292;-88
2022/11/16 13:33:43;;;;;;;12.90;3.57;;;10.50;99.90;;;;;;5014825;28;20297;-88
2022/11/16 13:36:53;;;;;;;16.13;5.10;;;10.60;99.90;;;;;;5014739;28;20347;-88